Time;durP1;ratioP1;P1;durP2;ratioP2;P2;SDS_P1;SDS_P2;PMS_P1;PMS_P2;Temp;Humidity;BMP_temperature;BMP_pressure;BME280_temperature;BME280_humidity;BME280_pressure;Samples;Min_cycle;Max_cycle;Signal;HPM_P1;HPM_P2
2022/11/27 00:01:11;;;;;;;13.10;8.27;;;;;;;;;;4897597;29;20056;-63
2022/11/27 00:03:38;;;;;;;14.85;7.95;;;;;;;;;;4897530;29;20056;-64
2022/11/27 00:06:05;;;;;;;15.95;8.85;;;;;;;;;;4896866;29;20052;-63
2022/11/27 00:08:32;;;;;;;16.63;9.10;;;;;;;;;;4897560;29;20044;-64
2022/11/27 00:11:06;;;;;;;18.08;9.60;;;;;;;;;;4911906;29;20562;-63
2022/11/27 00:13:32;;;;;;;16.08;8.18;;;;;;;;;;4896178;29;20108;-63
2022/11/27 00:15:59;;;;;;;20.30;8.77;;;;;;;;;;4895494;29;20120;-63
2022/11/27 00:18:25;;;;;;;13.57;8.02;;;;;;;;;;4897327;29;20049;-63
2022/11/27 00:20:52;;;;;;;14.90;8.15;;;;;;;;;;4897276;29;20111;-63
2022/11/27 00:23:18;;;;;;;11.18;8.35;;;;;;;;;;4896631;29;20052;-64
2022/11/27 00:25:48;;;;;;;10.50;7.38;;;;;;;;;;4911295;29;20059;-63
2022/11/27 00:28:15;;;;;;;14.25;8.10;;;;;;;;;;4896346;29;20372;-63
2022/11/27 00:30:41;;;;;;;15.63;8.30;;;;;;;;;;4897043;29;20398;-64
2022/11/27 00:33:07;;;;;;;13.65;7.82;;;;;;;;;;4895698;29;20049;-63
2022/11/27 00:35:34;;;;;;;16.25;8.85;;;;;;;;;;4896572;29;20047;-64
2022/11/27 00:38:00;;;;;;;14.23;8.10;;;;;;;;;;4896908;29;20060;-64
2022/11/27 00:40:27;;;;;;;12.23;8.48;;;;;;;;;;4896775;29;20215;-64
2022/11/27 00:42:53;;;;;;;15.18;8.43;;;;;;;;;;4911184;29;20063;-64
2022/11/27 00:45:19;;;;;;;13.82;8.80;;;;;;;;;;4896351;29;20055;-64
2022/11/27 00:47:46;;;;;;;18.80;8.63;;;;;;;;;;4896756;29;20051;-64
2022/11/27 00:50:12;;;;;;;15.27;9.13;;;;;;;;;;4911395;29;20040;-63
2022/11/27 00:52:39;;;;;;;18.35;9.10;;;;;;;;;;4911305;29;20088;-64
2022/11/27 00:55:05;;;;;;;15.18;9.40;;;;;;;;;;4896158;29;20494;-64
2022/11/27 00:57:32;;;;;;;15.93;9.15;;;;;;;;;;4911409;29;20052;-64
2022/11/27 00:59:58;;;;;;;17.58;9.98;;;;;;;;;;4896839;29;20052;-63
2022/11/27 01:02:24;;;;;;;14.10;8.40;;;;;;;;;;4896750;29;20092;-64
2022/11/27 01:04:51;;;;;;;15.15;8.30;;;;;;;;;;4896756;29;20119;-64
2022/11/27 01:07:17;;;;;;;18.40;9.30;;;;;;;;;;4910649;29;20092;-64
2022/11/27 01:09:44;;;;;;;16.50;8.85;;;;;;;;;;4896765;29;20093;-64
2022/11/27 01:12:10;;;;;;;12.68;8.50;;;;;;;;;;4911242;29;20096;-63
2022/11/27 01:14:37;;;;;;;20.00;8.65;;;;;;;;;;4897008;29;20049;-63
2022/11/27 01:17:04;;;;;;;16.40;8.77;;;;;;;;;;4896271;29;20044;-63
2022/11/27 01:19:30;;;;;;;21.33;9.43;;;;;;;;;;4895622;29;20112;-63
2022/11/27 01:21:57;;;;;;;17.23;9.02;;;;;;;;;;4911299;29;20052;-63
2022/11/27 01:24:23;;;;;;;15.25;9.27;;;;;;;;;;4895387;29;20075;-63
2022/11/27 01:26:49;;;;;;;18.02;9.50;;;;;;;;;;4895960;29;20052;-63
2022/11/27 01:29:16;;;;;;;14.57;10.25;;;;;;;;;;4896943;29;20045;-63
2022/11/27 01:32:04;;;;;;;16.23;9.23;;;;;;;;;;4896629;29;20045;-63
2022/11/27 01:34:30;;;;;;;15.55;9.25;;;;;;;;;;4898152;29;20394;-61
2022/11/27 01:36:56;;;;;;;18.75;9.23;;;;;;;;;;4899872;29;20045;-62
2022/11/27 01:39:23;;;;;;;19.83;10.15;;;;;;;;;;4914790;29;20112;-62
2022/11/27 01:41:50;;;;;;;15.75;9.82;;;;;;;;;;4899078;29;20048;-62
2022/11/27 01:44:22;;;;;;;13.38;8.48;;;;;;;;;;4900541;29;20055;-61
2022/11/27 01:46:52;;;;;;;15.63;8.85;;;;;;;;;;4899490;29;20047;-62
2022/11/27 01:49:24;;;;;;;12.30;8.38;;;;;;;;;;4900222;29;20481;-62
2022/11/27 01:52:08;;;;;;;15.50;8.93;;;;;;;;;;4899936;29;20047;-63
2022/11/27 01:54:39;;;;;;;17.25;8.75;;;;;;;;;;4900112;29;20591;-63
2022/11/27 01:57:12;;;;;;;13.90;8.45;;;;;;;;;;4899343;29;20052;-62
2022/11/27 01:59:39;;;;;;;14.27;8.23;;;;;;;;;;4899785;29;20044;-63
2022/11/27 02:02:05;;;;;;;14.02;8.95;;;;;;;;;;4899465;29;20057;-63
2022/11/27 02:04:31;;;;;;;13.25;7.88;;;;;;;;;;4899618;29;20045;-63
2022/11/27 02:06:58;;;;;;;13.65;7.80;;;;;;;;;;4899019;29;20458;-63
2022/11/27 02:09:25;;;;;;;15.23;8.07;;;;;;;;;;4899542;29;20387;-63
2022/11/27 02:12:11;;;;;;;14.45;8.05;;;;;;;;;;4899420;29;20104;-62
2022/11/27 02:14:37;;;;;;;13.48;8.85;;;;;;;;;;4899461;29;20490;-63
2022/11/27 02:17:19;;;;;;;15.57;8.80;;;;;;;;;;4913324;29;20060;-63
2022/11/27 02:19:45;;;;;;;15.43;7.45;;;;;;;;;;4899410;29;20048;-63
2022/11/27 02:22:31;;;;;;;13.07;8.45;;;;;;;;;;4899293;29;20044;-64
2022/11/27 02:25:03;;;;;;;10.55;7.95;;;;;;;;;;4913414;29;20108;-64
2022/11/27 02:28:02;;;;;;;13.35;8.02;;;;;;;;;;4899110;29;20096;-64
2022/11/27 02:30:31;;;;;;;17.35;9.43;;;;;;;;;;4867730;29;20554;-64
2022/11/27 02:32:59;;;;;;;11.73;7.88;;;;;;;;;;4899372;29;20045;-65
2022/11/27 02:35:36;;;;;;;10.85;7.78;;;;;;;;;;4898497;29;20096;-63
2022/11/27 02:38:15;;;;;;;12.30;8.63;;;;;;;;;;4897783;29;20052;-64
2022/11/27 02:40:47;;;;;;;12.23;8.15;;;;;;;;;;4898974;29;20498;-63
2022/11/27 02:43:16;;;;;;;11.85;8.48;;;;;;;;;;4898850;29;20040;-64
2022/11/27 02:45:44;;;;;;;15.75;9.10;;;;;;;;;;4897920;29;20108;-63
2022/11/27 02:48:11;;;;;;;15.20;8.73;;;;;;;;;;4898798;29;20120;-64
2022/11/27 02:50:39;;;;;;;14.68;8.07;;;;;;;;;;4897669;29;20111;-64
2022/11/27 02:53:28;;;;;;;11.05;8.32;;;;;;;;;;4913557;29;20091;-63
2022/11/27 02:55:55;;;;;;;14.00;8.05;;;;;;;;;;4898195;29;20498;-64
2022/11/27 02:58:23;;;;;;;13.98;8.18;;;;;;;;;;4912970;29;20104;-63
2022/11/27 03:00:50;;;;;;;15.30;8.15;;;;;;;;;;4898720;29;20127;-63
2022/11/27 03:03:18;;;;;;;15.95;8.23;;;;;;;;;;4898548;29;20591;-65
2022/11/27 03:05:46;;;;;;;15.40;8.23;;;;;;;;;;4898029;29;20135;-64
2022/11/27 03:08:16;;;;;;;17.10;8.68;;;;;;;;;;4898445;29;20108;-64
2022/11/27 03:10:46;;;;;;;15.63;8.90;;;;;;;;;;4897147;29;20140;-64
2022/11/27 03:13:13;;;;;;;14.02;8.88;;;;;;;;;;4898513;29;20049;-64
2022/11/27 03:16:02;;;;;;;17.05;7.82;;;;;;;;;;4897985;29;20053;-64
2022/11/27 03:18:29;;;;;;;15.15;7.97;;;;;;;;;;4890332;29;20127;-64
2022/11/27 03:21:01;;;;;;;13.85;8.20;;;;;;;;;;4898122;29;20040;-62
2022/11/27 03:23:28;;;;;;;11.80;8.43;;;;;;;;;;4898252;29;20486;-64
2022/11/27 03:25:54;;;;;;;13.32;7.88;;;;;;;;;;4897476;29;20075;-63
2022/11/27 03:28:21;;;;;;;11.65;8.30;;;;;;;;;;4897997;29;20053;-63
2022/11/27 03:30:47;;;;;;;12.38;8.68;;;;;;;;;;4898314;29;20045;-63
2022/11/27 03:33:14;;;;;;;13.75;9.15;;;;;;;;;;4896920;29;20578;-65
2022/11/27 03:35:40;;;;;;;15.40;9.70;;;;;;;;;;4912117;29;20080;-63
2022/11/27 03:38:07;;;;;;;12.90;9.10;;;;;;;;;;4898180;29;20462;-65
2022/11/27 03:40:43;;;;;;;16.67;9.75;;;;;;;;;;4898262;29;20462;-62
2022/11/27 03:43:16;;;;;;;11.43;8.57;;;;;;;;;;4898706;29;20100;-61
2022/11/27 03:45:47;;;;;;;14.30;8.95;;;;;;;;;;4897925;29;20112;-62
2022/11/27 03:48:14;;;;;;;10.15;7.82;;;;;;;;;;4898032;29;20041;-62
2022/11/27 03:50:47;;;;;;;12.98;8.43;;;;;;;;;;4897016;29;20088;-63
2022/11/27 03:53:21;;;;;;;12.90;8.75;;;;;;;;;;4898223;29;20069;-63
2022/11/27 03:56:05;;;;;;;15.15;8.68;;;;;;;;;;4911953;29;20056;-63
2022/11/27 03:58:46;;;;;;;13.60;8.40;;;;;;;;;;4896979;29;20067;-65
2022/11/27 04:01:15;;;;;;;10.68;8.20;;;;;;;;;;4896432;29;20077;-63
2022/11/27 04:03:41;;;;;;;8.70;7.32;;;;;;;;;;4897632;29;20048;-63
2022/11/27 04:06:07;;;;;;;10.40;7.38;;;;;;;;;;4896995;29;20162;-63
2022/11/27 04:08:34;;;;;;;9.27;6.88;;;;;;;;;;4897379;29;20550;-63
2022/11/27 04:11:00;;;;;;;10.75;7.60;;;;;;;;;;4897180;29;20052;-63
2022/11/27 04:13:27;;;;;;;11.02;7.82;;;;;;;;;;4897246;29;20045;-63
2022/11/27 04:15:53;;;;;;;10.98;8.05;;;;;;;;;;4896801;29;20041;-63
2022/11/27 04:18:19;;;;;;;9.57;7.60;;;;;;;;;;4897430;29;20041;-63
2022/11/27 04:20:46;;;;;;;11.00;7.45;;;;;;;;;;4897455;29;20450;-63
2022/11/27 04:23:12;;;;;;;10.38;7.78;;;;;;;;;;4897251;29;20044;-63
2022/11/27 04:25:39;;;;;;;8.18;6.80;;;;;;;;;;4896706;29;20533;-63
2022/11/27 04:28:05;;;;;;;10.05;6.82;;;;;;;;;;4897200;29;20447;-63
2022/11/27 04:30:31;;;;;;;9.88;6.43;;;;;;;;;;4897133;29;20044;-64
2022/11/27 04:32:58;;;;;;;8.70;6.55;;;;;;;;;;4895845;29;20045;-64
2022/11/27 04:35:24;;;;;;;9.25;7.20;;;;;;;;;;4896509;29;20450;-65
2022/11/27 04:37:51;;;;;;;11.43;7.35;;;;;;;;;;4897111;29;20048;-64
2022/11/27 04:40:17;;;;;;;12.60;7.57;;;;;;;;;;4896949;29;20419;-63
2022/11/27 04:42:44;;;;;;;10.57;7.38;;;;;;;;;;4897080;29;20447;-64
2022/11/27 04:45:10;;;;;;;9.40;6.88;;;;;;;;;;4896217;29;20446;-65
2022/11/27 04:47:36;;;;;;;10.88;7.05;;;;;;;;;;4896912;29;20096;-66
2022/11/27 04:50:03;;;;;;;9.50;7.10;;;;;;;;;;4895713;29;20641;-64
2022/11/27 04:52:29;;;;;;;11.63;6.95;;;;;;;;;;4911317;29;20049;-64
2022/11/27 04:54:56;;;;;;;10.05;6.82;;;;;;;;;;4896727;29;20041;-63
2022/11/27 04:57:26;;;;;;;8.50;7.47;;;;;;;;;;4896769;29;20040;-65
2022/11/27 04:59:52;;;;;;;11.30;7.53;;;;;;;;;;4896876;29;20044;-64
2022/11/27 05:02:18;;;;;;;10.23;7.05;;;;;;;;;;5342873;23;20126;-65
2022/11/27 05:04:45;;;;;;;12.63;8.80;;;;;;;;;;4915633;29;20044;-64
2022/11/27 05:07:11;;;;;;;11.50;8.07;;;;;;;;;;4913849;29;20052;-64
2022/11/27 05:09:38;;;;;;;12.07;7.65;;;;;;;;;;4917190;29;20036;-64
2022/11/27 05:12:05;;;;;;;12.05;8.13;;;;;;;;;;4919404;29;20044;-65
2022/11/27 05:14:31;;;;;;;13.57;8.20;;;;;;;;;;4934240;29;20046;-64
2022/11/27 05:16:58;;;;;;;13.02;8.13;;;;;;;;;;4918811;29;20043;-64
2022/11/27 05:19:26;;;;;;;11.13;7.53;;;;;;;;;;4919408;29;20565;-65
2022/11/27 05:21:53;;;;;;;13.93;7.88;;;;;;;;;;4933889;29;20087;-64
2022/11/27 05:24:21;;;;;;;12.18;8.25;;;;;;;;;;4919190;29;20385;-65
2022/11/27 05:26:48;;;;;;;8.25;7.35;;;;;;;;;;4918594;29;20040;-64
2022/11/27 05:29:15;;;;;;;8.88;5.80;;;;;;;;;;4919302;29;20084;-64
2022/11/27 05:31:41;;;;;;;8.30;5.63;;;;;;;;;;4919136;29;20052;-64
2022/11/27 05:34:08;;;;;;;7.40;5.65;;;;;;;;;;4919394;29;20412;-64
2022/11/27 05:36:35;;;;;;;6.97;5.40;;;;;;;;;;4918507;29;20511;-65
2022/11/27 05:39:03;;;;;;;7.88;5.90;;;;;;;;;;4918947;29;20056;-64
2022/11/27 05:41:29;;;;;;;6.57;4.90;;;;;;;;;;4918935;29;20048;-65
2022/11/27 05:43:56;;;;;;;5.70;4.15;;;;;;;;;;4919510;29;20052;-64
2022/11/27 05:46:22;;;;;;;6.05;4.70;;;;;;;;;;4933364;29;20051;-64
2022/11/27 05:48:48;;;;;;;6.95;4.80;;;;;;;;;;4919041;29;20082;-64
2022/11/27 05:51:15;;;;;;;5.53;4.50;;;;;;;;;;4917533;29;20465;-64
2022/11/27 05:53:42;;;;;;;6.88;5.40;;;;;;;;;;4919071;29;20059;-64
2022/11/27 05:56:10;;;;;;;6.72;5.13;;;;;;;;;;4917161;29;20040;-64
2022/11/27 05:58:37;;;;;;;6.57;4.90;;;;;;;;;;4919049;29;20048;-64
2022/11/27 06:01:04;;;;;;;7.20;5.13;;;;;;;;;;4918989;29;20056;-65
2022/11/27 06:03:30;;;;;;;5.95;4.95;;;;;;;;;;4918774;29;20106;-65
2022/11/27 06:05:57;;;;;;;11.57;5.57;;;;;;;;;;4918301;29;20127;-64
2022/11/27 06:08:23;;;;;;;8.82;5.18;;;;;;;;;;4918961;29;20378;-65
2022/11/27 06:10:50;;;;;;;11.43;5.25;;;;;;;;;;4918651;29;20048;-64
2022/11/27 06:13:16;;;;;;;10.90;5.55;;;;;;;;;;4918749;29;20060;-64
2022/11/27 06:15:42;;;;;;;6.95;5.13;;;;;;;;;;4917881;29;20044;-64
2022/11/27 06:18:09;;;;;;;8.27;5.38;;;;;;;;;;4918425;29;20081;-64
2022/11/27 06:20:36;;;;;;;6.68;5.60;;;;;;;;;;4917524;29;20048;-64
2022/11/27 06:23:09;;;;;;;9.20;6.85;;;;;;;;;;4918224;29;20048;-63
2022/11/27 06:25:35;;;;;;;11.45;6.80;;;;;;;;;;4933522;29;20051;-63
2022/11/27 06:28:01;;;;;;;12.07;7.03;;;;;;;;;;4918143;29;20048;-63
2022/11/27 06:30:28;;;;;;;10.07;6.35;;;;;;;;;;4918214;29;20083;-64
2022/11/27 06:32:54;;;;;;;10.38;6.18;;;;;;;;;;4917933;29;20067;-65
2022/11/27 06:35:21;;;;;;;8.85;6.50;;;;;;;;;;4917401;29;20086;-64
2022/11/27 06:37:48;;;;;;;11.48;7.63;;;;;;;;;;4918082;29;20048;-63
2022/11/27 06:40:14;;;;;;;12.35;7.68;;;;;;;;;;4932678;29;20052;-63
2022/11/27 06:42:40;;;;;;;8.05;6.10;;;;;;;;;;4917176;29;20048;-64
2022/11/27 06:45:07;;;;;;;8.02;6.55;;;;;;;;;;4917575;29;20493;-64
2022/11/27 06:47:34;;;;;;;8.90;6.80;;;;;;;;;;4917930;29;20056;-64
2022/11/27 06:50:00;;;;;;;15.02;10.23;;;;;;;;;;4918120;29;20056;-64
2022/11/27 06:52:26;;;;;;;9.25;6.82;;;;;;;;;;4917731;29;20489;-64
2022/11/27 06:54:53;;;;;;;8.50;6.00;;;;;;;;;;4916406;29;20044;-64
2022/11/27 06:57:19;;;;;;;5.90;4.78;;;;;;;;;;4917042;29;20044;-63
2022/11/27 06:59:45;;;;;;;5.53;4.90;;;;;;;;;;4917826;29;20055;-63
2022/11/27 07:02:15;;;;;;;5.97;5.07;;;;;;;;;;4916082;29;20078;-64
2022/11/27 07:04:41;;;;;;;7.13;4.85;;;;;;;;;;4917422;29;20048;-64
2022/11/27 07:07:08;;;;;;;8.20;5.53;;;;;;;;;;4916876;29;20449;-63
2022/11/27 07:09:34;;;;;;;8.43;6.30;;;;;;;;;;4917364;29;20048;-64
2022/11/27 07:12:02;;;;;;;7.95;5.32;;;;;;;;;;4916388;29;20044;-64
2022/11/27 07:14:29;;;;;;;7.05;5.55;;;;;;;;;;4917602;29;20082;-68
2022/11/27 07:16:55;;;;;;;7.78;5.72;;;;;;;;;;4931627;29;20437;-63
2022/11/27 07:19:22;;;;;;;8.23;6.18;;;;;;;;;;4916218;29;20048;-64
2022/11/27 07:21:48;;;;;;;6.75;5.55;;;;;;;;;;4916023;29;20044;-64
2022/11/27 07:24:15;;;;;;;8.77;5.80;;;;;;;;;;4916152;29;20052;-64
2022/11/27 07:26:41;;;;;;;9.57;7.03;;;;;;;;;;4916749;29;20496;-63
2022/11/27 07:29:07;;;;;;;8.43;6.38;;;;;;;;;;4916957;29;20045;-63
2022/11/27 07:31:34;;;;;;;9.38;6.50;;;;;;;;;;4916838;29;20512;-64
2022/11/27 07:34:00;;;;;;;13.85;8.07;;;;;;;;;;4917026;29;20044;-65
2022/11/27 07:36:28;;;;;;;10.32;7.10;;;;;;;;;;4930918;29;20044;-63
2022/11/27 07:38:55;;;;;;;10.80;7.15;;;;;;;;;;4917018;29;20103;-63
2022/11/27 07:41:21;;;;;;;9.13;6.82;;;;;;;;;;4916879;29;20047;-63
2022/11/27 07:43:47;;;;;;;11.05;6.93;;;;;;;;;;4916959;29;20059;-64
2022/11/27 07:46:15;;;;;;;9.32;6.32;;;;;;;;;;4916383;29;20099;-64
2022/11/27 07:48:42;;;;;;;9.05;7.05;;;;;;;;;;4916702;29;20136;-64
2022/11/27 07:51:09;;;;;;;7.95;6.68;;;;;;;;;;4916946;29;20043;-63
2022/11/27 07:53:37;;;;;;;9.90;7.43;;;;;;;;;;4931627;29;20096;-64
2022/11/27 07:56:04;;;;;;;9.80;6.28;;;;;;;;;;4915980;29;20043;-63
2022/11/27 07:58:30;;;;;;;7.57;5.00;;;;;;;;;;4915191;29;20052;-63
2022/11/27 08:00:57;;;;;;;5.78;5.00;;;;;;;;;;4916580;29;20658;-63
2022/11/27 08:03:23;;;;;;;6.65;5.30;;;;;;;;;;4916367;29;20132;-63
2022/11/27 08:05:51;;;;;;;7.18;4.40;;;;;;;;;;4915863;29;20140;-63
2022/11/27 08:08:17;;;;;;;5.65;4.30;;;;;;;;;;4916311;29;20428;-63
2022/11/27 08:10:43;;;;;;;5.63;4.22;;;;;;;;;;4916326;29;20511;-62
2022/11/27 08:13:10;;;;;;;6.10;4.80;;;;;;;;;;4915212;29;20493;-62
2022/11/27 08:15:36;;;;;;;6.13;4.55;;;;;;;;;;4930175;29;20052;-64
2022/11/27 08:18:03;;;;;;;6.18;4.55;;;;;;;;;;4915974;29;20076;-64
2022/11/27 08:20:29;;;;;;;6.38;5.13;;;;;;;;;;4931109;29;20501;-63
2022/11/27 08:22:57;;;;;;;7.60;5.60;;;;;;;;;;4916069;29;20083;-64
2022/11/27 08:25:28;;;;;;;8.77;5.80;;;;;;;;;;4929638;29;20040;-63
2022/11/27 08:27:54;;;;;;;22.33;11.10;;;;;;;;;;4916207;29;20394;-64
2022/11/27 08:30:22;;;;;;;21.60;8.00;;;;;;;;;;4916254;29;20051;-64
2022/11/27 08:32:48;;;;;;;10.30;6.90;;;;;;;;;;4914696;29;20052;-63
2022/11/27 08:35:15;;;;;;;19.30;9.65;;;;;;;;;;4915516;29;20048;-63
2022/11/27 08:37:42;;;;;;;18.63;8.27;;;;;;;;;;4930555;29;20048;-64
2022/11/27 08:40:08;;;;;;;11.32;6.90;;;;;;;;;;4915980;29;20107;-63
2022/11/27 08:42:35;;;;;;;9.85;6.25;;;;;;;;;;4930468;29;20044;-64
2022/11/27 08:45:01;;;;;;;8.50;6.47;;;;;;;;;;4929577;29;20052;-65
2022/11/27 08:47:27;;;;;;;15.80;7.85;;;;;;;;;;4915898;29;20103;-64
2022/11/27 08:49:54;;;;;;;11.07;7.15;;;;;;;;;;4915842;29;20072;-64
2022/11/27 08:52:20;;;;;;;9.02;6.00;;;;;;;;;;4914648;29;20053;-63
2022/11/27 08:54:47;;;;;;;11.73;7.85;;;;;;;;;;4915743;29;20096;-64
2022/11/27 08:57:19;;;;;;;9.98;6.47;;;;;;;;;;4914190;29;20048;-65
2022/11/27 08:59:46;;;;;;;8.85;5.07;;;;;;;;;;4915943;29;20118;-65
2022/11/27 09:02:13;;;;;;;10.00;5.93;;;;;;;;;;4914356;29;20063;-64
2022/11/27 09:04:39;;;;;;;6.65;5.65;;;;;;;;;;4915711;29;20047;-64
2022/11/27 09:07:06;;;;;;;6.75;4.80;;;;;;;;;;4913992;29;20140;-65
2022/11/27 09:09:32;;;;;;;6.85;4.97;;;;;;;;;;4930241;29;20040;-65
2022/11/27 09:11:59;;;;;;;6.75;5.40;;;;;;;;;;4915613;29;20158;-66
2022/11/27 09:14:25;;;;;;;8.20;5.15;;;;;;;;;;4915817;29;20050;-64
2022/11/27 09:16:52;;;;;;;5.35;4.70;;;;;;;;;;4929536;29;20052;-65
2022/11/27 09:19:20;;;;;;;5.72;5.10;;;;;;;;;;4915814;29;20530;-65
2022/11/27 09:21:48;;;;;;;5.28;4.63;;;;;;;;;;4915490;29;20128;-65
2022/11/27 09:24:14;;;;;;;8.80;6.25;;;;;;;;;;4915334;29;20044;-65
2022/11/27 09:26:43;;;;;;;8.05;5.57;;;;;;;;;;4914760;29;20099;-65
2022/11/27 09:29:09;;;;;;;5.82;4.57;;;;;;;;;;4915409;29;20040;-65
2022/11/27 09:31:36;;;;;;;4.60;3.97;;;;;;;;;;4915454;29;20040;-65
2022/11/27 09:34:03;;;;;;;5.18;3.75;;;;;;;;;;4915246;29;20072;-65
2022/11/27 09:36:30;;;;;;;4.18;3.50;;;;;;;;;;4929317;29;20055;-64
2022/11/27 09:38:57;;;;;;;12.18;9.07;;;;;;;;;;4929936;29;20048;-65
2022/11/27 09:41:34;;;;;;;29.67;15.02;;;;;;;;;;4915439;29;20096;-65
2022/11/27 09:44:19;;;;;;;7.90;5.30;;;;;;;;;;4915511;29;20496;-65
2022/11/27 09:46:46;;;;;;;6.50;4.40;;;;;;;;;;4929481;29;20555;-64
2022/11/27 09:49:31;;;;;;;7.63;4.40;;;;;;;;;;4915352;29;20099;-63
2022/11/27 09:52:06;;;;;;;7.38;4.60;;;;;;;;;;4914182;29;20453;-66
2022/11/27 09:54:39;;;;;;;6.22;4.20;;;;;;;;;;4915590;29;20515;-64
2022/11/27 09:57:12;;;;;;;4.30;3.67;;;;;;;;;;4917040;29;20044;-65
2022/11/27 09:59:41;;;;;;;4.80;4.25;;;;;;;;;;4917370;29;20048;-64
2022/11/27 10:02:16;;;;;;;9.90;6.68;;;;;;;;;;4933259;29;20104;-63
2022/11/27 10:04:43;;;;;;;12.48;7.28;;;;;;;;;;4933369;29;20056;-64
2022/11/27 10:07:40;;;;;;;9.57;6.60;;;;;;;;;;4918817;29;20051;-65
2022/11/27 10:10:07;;;;;;;7.50;4.47;;;;;;;;;;4933083;29;20112;-64
2022/11/27 10:12:42;;;;;;;4.47;3.70;;;;;;;;;;4919171;29;20080;-65
2022/11/27 10:15:20;;;;;;;4.70;3.55;;;;;;;;;;4918725;29;20210;-64
2022/11/27 10:17:56;;;;;;;3.95;3.58;;;;;;;;;;4919115;29;20055;-64
2022/11/27 10:20:27;;;;;;;4.65;3.65;;;;;;;;;;4918786;29;20072;-65
2022/11/27 10:22:59;;;;;;;4.82;4.32;;;;;;;;;;4918613;29;20058;-66
2022/11/27 10:25:36;;;;;;;6.82;3.88;;;;;;;;;;4932562;29;20056;-66
2022/11/27 10:28:15;;;;;;;4.22;3.80;;;;;;;;;;4918560;29;20048;-65
2022/11/27 10:31:02;;;;;;;8.35;5.03;;;;;;;;;;4918502;29;20425;-66
2022/11/27 10:33:37;;;;;;;4.90;4.25;;;;;;;;;;4933174;29;20453;-64
2022/11/27 10:36:04;;;;;;;3.83;3.00;;;;;;;;;;4918044;29;20052;-65
2022/11/27 10:38:32;;;;;;;5.53;3.47;;;;;;;;;;4933038;29;20040;-65
2022/11/27 10:41:11;;;;;;;4.07;3.28;;;;;;;;;;4933333;29;20048;-64
2022/11/27 10:43:59;;;;;;;4.35;3.28;;;;;;;;;;4917039;29;20127;-66
2022/11/27 10:46:28;;;;;;;5.80;3.83;;;;;;;;;;4917919;29;20469;-65
2022/11/27 10:48:56;;;;;;;5.45;3.70;;;;;;;;;;4933021;29;20052;-66
2022/11/27 10:51:35;;;;;;;10.60;7.03;;;;;;;;;;4917205;29;20059;-63
2022/11/27 10:54:04;;;;;;;6.03;4.20;;;;;;;;;;4933389;29;20040;-65
2022/11/27 10:56:53;;;;;;;3.75;3.10;;;;;;;;;;4933098;29;20422;-65
2022/11/27 10:59:23;;;;;;;6.50;4.72;;;;;;;;;;4892010;29;20137;-64
2022/11/27 11:01:57;;;;;;;4.05;3.38;;;;;;;;;;4918261;29;20044;-65
2022/11/27 11:04:28;;;;;;;4.53;3.90;;;;;;;;;;4932595;29;20500;-66
2022/11/27 11:07:21;;;;;;;6.80;4.55;;;;;;;;;;4917240;29;20075;-64
2022/11/27 11:09:48;;;;;;;5.47;4.32;;;;;;;;;;4916869;29;20615;-64
2022/11/27 11:12:17;;;;;;;4.85;3.70;;;;;;;;;;4918150;29;20046;-66
2022/11/27 11:14:51;;;;;;;6.63;3.70;;;;;;;;;;4916764;29;20468;-65
2022/11/27 11:17:23;;;;;;;4.10;3.65;;;;;;;;;;4916948;29;20046;-65
2022/11/27 11:19:49;;;;;;;4.38;3.20;;;;;;;;;;4917375;29;20040;-66
2022/11/27 11:22:16;;;;;;;5.30;3.53;;;;;;;;;;4918709;29;20067;-67
2022/11/27 11:24:46;;;;;;;6.90;4.07;;;;;;;;;;4916715;29;20552;-67
2022/11/27 11:27:20;;;;;;;4.88;4.30;;;;;;;;;;4917206;29;20063;-65
2022/11/27 11:30:12;;;;;;;4.60;3.80;;;;;;;;;;4917825;29;20040;-63
2022/11/27 11:32:39;;;;;;;6.70;4.10;;;;;;;;;;4914404;29;20052;-65
2022/11/27 11:35:23;;;;;;;5.72;4.38;;;;;;;;;;4916688;29;20063;-65
2022/11/27 11:37:50;;;;;;;5.25;4.03;;;;;;;;;;4917568;29;20076;-65
2022/11/27 11:40:22;;;;;;;4.97;3.53;;;;;;;;;;4917590;29;20044;-64
2022/11/27 11:42:57;;;;;;;6.20;4.28;;;;;;;;;;4916844;29;20100;-65
2022/11/27 11:45:25;;;;;;;6.22;4.03;;;;;;;;;;4930690;29;20048;-64
2022/11/27 11:48:02;;;;;;;5.70;4.20;;;;;;;;;;4916999;29;20074;-65
2022/11/27 11:50:39;;;;;;;6.68;3.80;;;;;;;;;;4917216;29;20412;-64
2022/11/27 11:53:25;;;;;;;4.88;3.75;;;;;;;;;;4917034;29;20048;-65
2022/11/27 11:55:51;;;;;;;4.70;3.30;;;;;;;;;;4931192;29;20080;-65
2022/11/27 11:58:35;;;;;;;6.50;4.32;;;;;;;;;;4917131;29;20112;-65
2022/11/27 12:01:19;;;;;;;5.82;3.42;;;;;;;;;;4916908;29;20071;-65
2022/11/27 12:04:07;;;;;;;5.78;3.58;;;;;;;;;;4930586;29;20052;-64
2022/11/27 12:06:46;;;;;;;4.20;3.35;;;;;;;;;;4930580;29;20055;-64
2022/11/27 12:09:22;;;;;;;5.78;4.00;;;;;;;;;;4931623;29;20054;-65
2022/11/27 12:11:54;;;;;;;6.28;4.45;;;;;;;;;;4917761;29;20043;-63
2022/11/27 12:14:41;;;;;;;4.88;3.40;;;;;;;;;;4917843;29;20100;-65
2022/11/27 12:17:08;;;;;;;4.63;3.42;;;;;;;;;;4918254;29;20047;-66
2022/11/27 12:19:37;;;;;;;6.07;3.78;;;;;;;;;;4932667;29;20051;-64
2022/11/27 12:22:19;;;;;;;4.78;3.10;;;;;;;;;;4932563;29;20501;-67
2022/11/27 12:24:58;;;;;;;4.20;3.38;;;;;;;;;;4917843;29;20048;-65
2022/11/27 12:27:43;;;;;;;6.57;4.65;;;;;;;;;;4932573;29;20052;-65
2022/11/27 12:30:14;;;;;;;7.68;3.97;;;;;;;;;;4917268;29;20055;-65
2022/11/27 12:32:50;;;;;;;6.18;4.55;;;;;;;;;;4917140;29;20515;-66
2022/11/27 12:35:25;;;;;;;6.25;3.60;;;;;;;;;;4931489;29;20111;-64
2022/11/27 12:37:55;;;;;;;6.15;3.88;;;;;;;;;;4916004;29;20480;-64
2022/11/27 12:40:34;;;;;;;5.68;3.70;;;;;;;;;;4916872;29;20091;-65
2022/11/27 12:43:22;;;;;;;6.45;3.80;;;;;;;;;;4916669;29;20048;-65
2022/11/27 12:46:08;;;;;;;5.72;3.60;;;;;;;;;;4916514;29;20055;-65
2022/11/27 12:48:38;;;;;;;5.85;4.30;;;;;;;;;;4916064;29;20048;-67
2022/11/27 12:51:08;;;;;;;3.97;3.50;;;;;;;;;;4931763;29;20091;-66
2022/11/27 12:53:49;;;;;;;6.13;3.33;;;;;;;;;;4916923;29;20052;-66
2022/11/27 12:56:46;;;;;;;8.55;4.32;;;;;;;;;;4915051;29;20054;-65
2022/11/27 12:59:13;;;;;;;4.05;3.20;;;;;;;;;;4904317;29;20077;-64
2022/11/27 13:01:49;;;;;;;14.82;9.13;;;;;;;;;;4916977;29;20071;-67
2022/11/27 13:04:16;;;;;;;13.25;7.03;;;;;;;;;;4917166;29;20408;-66
2022/11/27 13:06:48;;;;;;;5.50;4.15;;;;;;;;;;4931264;29;20051;-66
2022/11/27 13:09:18;;;;;;;5.65;4.30;;;;;;;;;;4916686;29;20162;-66
2022/11/27 13:11:46;;;;;;;8.70;4.97;;;;;;;;;;4915031;29;20056;-64
2022/11/27 13:14:20;;;;;;;6.28;3.70;;;;;;;;;;4931113;29;20481;-65
2022/11/27 13:16:55;;;;;;;4.75;3.70;;;;;;;;;;4914373;29;20058;-67
2022/11/27 13:19:42;;;;;;;5.28;4.10;;;;;;;;;;4930352;29;20567;-68
2022/11/27 13:22:11;;;;;;;5.43;3.78;;;;;;;;;;4914832;29;20067;-67
2022/11/27 13:24:37;;;;;;;6.40;3.83;;;;;;;;;;4915869;29;20126;-67
2022/11/27 13:27:07;;;;;;;6.82;4.78;;;;;;;;;;4915407;29;20048;-67
2022/11/27 13:29:41;;;;;;;7.30;5.65;;;;;;;;;;4915904;29;20095;-65
2022/11/27 13:32:08;;;;;;;6.00;4.45;;;;;;;;;;4934150;29;20044;-67
2022/11/27 13:34:43;;;;;;;6.70;4.18;;;;;;;;;;4919387;29;20104;-67
2022/11/27 13:37:22;;;;;;;6.53;4.90;;;;;;;;;;4917561;29;20531;-65
2022/11/27 13:39:48;;;;;;;6.07;4.28;;;;;;;;;;4918173;29;20048;-65
2022/11/27 13:42:21;;;;;;;5.80;4.43;;;;;;;;;;4917915;29;20048;-67
2022/11/27 13:44:52;;;;;;;6.05;4.50;;;;;;;;;;4917886;29;20045;-64
2022/11/27 13:47:20;;;;;;;7.85;5.43;;;;;;;;;;4918900;29;20048;-66
2022/11/27 13:49:56;;;;;;;5.88;4.20;;;;;;;;;;4917953;29;20688;-66
2022/11/27 13:52:23;;;;;;;5.57;4.38;;;;;;;;;;4933524;29;20048;-65
2022/11/27 13:54:51;;;;;;;5.85;3.78;;;;;;;;;;4933486;29;20056;-65
2022/11/27 13:57:20;;;;;;;5.32;3.63;;;;;;;;;;4932938;29;20048;-66
2022/11/27 13:59:57;;;;;;;4.85;3.28;;;;;;;;;;4933946;29;20055;-66
2022/11/27 14:02:24;;;;;;;16.52;11.00;;;;;;;;;;4917451;29;20048;-66
2022/11/27 14:04:52;;;;;;;5.22;3.63;;;;;;;;;;4933568;29;20055;-66
2022/11/27 14:07:22;;;;;;;5.60;3.42;;;;;;;;;;4918853;29;20436;-65
2022/11/27 14:09:55;;;;;;;7.97;4.78;;;;;;;;;;4917862;29;20108;-67
2022/11/27 14:12:21;;;;;;;6.43;4.35;;;;;;;;;;4933513;29;20054;-66
2022/11/27 14:15:03;;;;;;;7.95;4.32;;;;;;;;;;4933269;29;20095;-65
2022/11/27 14:17:59;;;;;;;8.18;4.50;;;;;;;;;;4932921;29;20103;-65
2022/11/27 14:20:27;;;;;;;5.95;3.50;;;;;;;;;;4905398;29;20060;-66
2022/11/27 14:22:55;;;;;;;7.40;4.20;;;;;;;;;;4933004;29;20073;-66
2022/11/27 14:25:39;;;;;;;7.72;4.70;;;;;;;;;;4937573;29;20056;-66
2022/11/27 14:28:08;;;;;;;5.63;3.22;;;;;;;;;;4932555;29;20115;-67
2022/11/27 14:30:39;;;;;;;7.35;4.43;;;;;;;;;;4932824;29;20036;-67
2022/11/27 14:33:15;;;;;;;7.07;3.78;;;;;;;;;;4917986;29;20071;-65
2022/11/27 14:35:46;;;;;;;6.05;3.75;;;;;;;;;;4916457;29;20076;-64
2022/11/27 14:38:14;;;;;;;4.85;3.30;;;;;;;;;;4932816;29;20449;-66
2022/11/27 14:40:41;;;;;;;4.47;3.50;;;;;;;;;;4933019;29;20103;-67
2022/11/27 14:43:13;;;;;;;5.45;3.97;;;;;;;;;;4931990;29;20048;-68
2022/11/27 14:45:48;;;;;;;6.05;4.03;;;;;;;;;;4932422;29;20048;-66
2022/11/27 14:48:18;;;;;;;6.70;4.40;;;;;;;;;;4918215;29;20139;-66
2022/11/27 14:50:44;;;;;;;4.57;3.55;;;;;;;;;;4918336;29;20653;-68
2022/11/27 14:53:11;;;;;;;4.30;3.22;;;;;;;;;;4917911;29;20048;-66
2022/11/27 14:55:38;;;;;;;4.82;3.17;;;;;;;;;;4917657;29;20046;-65